Data for 01/06/2010

Time Sea-Level Adjusted Pressure Absolute Pressure Temperature Relative Humidity Dew Point   
(mb) (inHg) (mb) (inHg) (C) (F) (%) (C) (F)
00:05 1022 30.18 851 25.13 -14.1 6.5 84 -16.3 2.7
00:10 1022 30.18 851 25.13 -14.2 6.4 85 -16.2 2.8
00:15 1022 30.18 851 25.13 -14.1 6.6 85 -16.1 3
00:20 1022 30.18 852 25.16 -14.1 6.6 84 -16.3 2.7
00:25 1022 30.18 852 25.16 -14.2 6.4 85 -16.2 2.8
00:30 1023 30.21 852 25.16 -14.3 6.4 86 -16.2 2.9
00:35 1023 30.21 852 25.16 -14.4 6.1 86 -16.3 2.7
00:40 1023 30.21 852 25.16 -14.6 5.7 87 -16.3 2.6
00:45 1023 30.21 852 25.16 -14.7 5.6 87 -16.3 2.6
00:50 1023 30.21 852 25.16 -14.7 5.5 88 -16.3 2.6
00:55 1023 30.21 852 25.16 -14.7 5.5 87 -16.4 2.5
01:00 1023 30.21 852 25.16 -14.8 5.4 87 -16.4 2.4
01:05 1023 30.21 852 25.16 -14.7 5.6 87 -16.4 2.5
01:10 1023 30.21 852 25.16 -14.6 5.7 87 -16.3 2.7
01:15 1023 30.21 852 25.16 -14.6 5.7 87 -16.4 2.5
01:20 1023 30.21 852 25.16 -14.7 5.5 86 -16.6 2.2
01:25 1023 30.21 852 25.16 -14.7 5.5 85 -16.7 1.9
01:30 1023 30.21 852 25.16 -14.7 5.6 84 -16.8 1.8
01:35 1023 30.21 853 25.19 -14.8 5.3 84 -16.9 1.6
01:40 1024 30.24 853 25.19 -14.9 5.2 85 -16.9 1.6
01:45 1023 30.21 853 25.19 -14.9 5.2 84 -17 1.4
01:50 1024 30.24 853 25.19 -15.1 4.9 84 -17.1 1.2
01:55 1024 30.24 853 25.19 -15 5 85 -17 1.3
02:00 1024 30.24 853 25.19 -15.1 4.8 85 -17.2 1.1
02:05 1024 30.24 853 25.19 -15.1 4.8 85 -17.1 1.3
02:10 1024 30.24 853 25.19 -15 5.1 84 -17.2 1.1
02:15 1024 30.24 853 25.19 -15 5 83 -17.3 0.9
02:20 1024 30.24 854 25.22 -15.1 4.9 83 -17.4 0.7
02:25 1024 30.24 854 25.22 -15.2 4.7 83 -17.5 0.5
02:30 1025 30.27 854 25.22 -15.3 4.4 83 -17.5 0.4
02:35 1025 30.27 854 25.22 -15.4 4.3 85 -17.4 0.7
02:40 1025 30.27 854 25.22 -15.4 4.4 85 -17.4 0.7
02:45 1025 30.27 854 25.22 -15.4 4.3 84 -17.6 0.4
02:50 1025 30.27 854 25.22 -15.5 4.1 83 -17.8 0
02:55 1025 30.27 854 25.22 -15.5 4.1 83 -17.8 -0
03:00 1025 30.27 854 25.22 -15.6 3.9 83 -17.8 -0.1
03:05 1025 30.27 854 25.22 -15.7 3.8 84 -17.8 -0.1
03:10 1025 30.27 854 25.22 -15.6 3.9 83 -17.8 -0.1
03:15 1025 30.27 854 25.22 -15.6 4 83 -17.9 -0.2
03:20 1025 30.27 854 25.22 -15.4 4.2 82 -17.9 -0.2
03:25 1025 30.27 854 25.22 -15.5 4.2 81 -18 -0.3
03:30 1025 30.27 855 25.25 -15.6 3.9 82 -18 -0.4
03:35 1026 30.3 855 25.25 -15.6 3.9 82 -18.1 -0.5
03:40 1026 30.3 855 25.25 -15.7 3.8 82 -18.1 -0.6
03:45 1026 30.3 855 25.25 -15.7 3.7 82 -18.1 -0.6
03:50 1026 30.3 855 25.25 -15.7 3.8 82 -18.1 -0.6
03:55 1026 30.3 855 25.25 -15.7 3.7 82 -18.1 -0.5
04:00 1026 30.3 855 25.25 -15.7 3.8 82 -18.1 -0.5
04:05 1026 30.3 855 25.25 -15.7 3.7 82 -18.1 -0.6
04:10 1026 30.3 855 25.25 -15.6 3.9 82 -18.1 -0.5
04:15 1026 30.3 855 25.25 -15.9 3.5 82 -18.3 -1
04:20 1026 30.3 856 25.28 -15.9 3.4 82 -18.3 -0.9
04:25 1026 30.3 856 25.28 -15.8 3.5 82 -18.3 -0.9
04:30 1026 30.3 856 25.28 -15.9 3.5 81 -18.5 -1.2
04:35 1026 30.3 856 25.28 -15.9 3.3 82 -18.4 -1
04:40 1027 30.33 856 25.28 -15.8 3.5 82 -18.2 -0.8
04:45 1027 30.33 856 25.28 -15.8 3.5 81 -18.4 -1.1
04:50 1027 30.33 856 25.28 -15.9 3.4 81 -18.4 -1.1
04:55 1027 30.33 856 25.28 -15.9 3.3 81 -18.5 -1.3
05:00 1027 30.33 856 25.28 -16 3.2 81 -18.5 -1.3
05:05 1027 30.33 856 25.28 -16.1 3.1 82 -18.5 -1.3
05:10 1027 30.33 856 25.28 -16.1 3 82 -18.5 -1.3
05:15 1027 30.33 856 25.28 -16.1 2.9 82 -18.6 -1.4
05:20 1027 30.33 856 25.28 -16.2 2.8 83 -18.5 -1.3
05:25 1027 30.33 856 25.28 -16.1 3 83 -18.4 -1.1
05:30 1027 30.33 856 25.28 -16.1 3.1 82 -18.4 -1.1
05:35 1027 30.33 857 25.31 -16 3.2 83 -18.3 -1
05:40 1027 30.33 857 25.31 -16 3.2 82 -18.4 -1.1
05:45 1028 30.36 857 25.31 -15.9 3.3 84 -18.1 -0.6
05:50 1028 30.36 857 25.31 -15.9 3.4 83 -18.1 -0.7
05:55 1028 30.36 857 25.31 -15.9 3.3 84 -18.1 -0.6
06:00 1028 30.36 857 25.31 -15.9 3.3 83 -18.2 -0.7
06:05 1028 30.36 857 25.31 -16 3.2 83 -18.3 -1
06:10 1028 30.36 857 25.31 -16.1 3 82 -18.5 -1.2
06:15 1028 30.36 857 25.31 -16.2 2.9 82 -18.6 -1.4
06:20 1028 30.36 857 25.31 -16.2 2.9 83 -18.5 -1.3
06:25 1028 30.36 857 25.31 -16.2 2.8 83 -18.5 -1.3
06:30 1028 30.36 857 25.31 -16.3 2.6 84 -18.4 -1.2
06:35 1028 30.36 857 25.31 -16.3 2.7 83 -18.5 -1.3
06:40 1028 30.36 858 25.34 -16.2 2.8 84 -18.4 -1.2
06:45 1028 30.36 858 25.34 -16.2 2.9 82 -18.5 -1.3
06:50 1028 30.36 858 25.34 -16.2 2.8 83 -18.5 -1.3
06:55 1029 30.39 858 25.34 -16.2 2.9 83 -18.4 -1.2
07:00 1029 30.39 858 25.34 -16.1 3 83 -18.4 -1.1
07:05 1029 30.39 858 25.34 -16.2 2.9 83 -18.4 -1.1
07:10 1029 30.39 858 25.34 -16.2 2.9 83 -18.4 -1.1
07:15 1029 30.39 858 25.34 -16.2 2.8 83 -18.5 -1.3
07:20 1029 30.39 858 25.34 -16.2 2.9 83 -18.5 -1.3
07:25 1029 30.39 858 25.34 -16.2 2.9 83 -18.4 -1.2
07:30 1029 30.39 858 25.34 -16.1 3 83 -18.4 -1.1
07:35 1029 30.39 858 25.34 -16.1 3 82 -18.5 -1.3
07:40 1029 30.39 858 25.34 -16.4 2.5 83 -18.7 -1.6
07:45 1029 30.39 858 25.34 -16.5 2.4 83 -18.7 -1.7
07:50 1029 30.39 859 25.37 -16.5 2.3 82 -18.9 -2
07:55 1029 30.39 859 25.37 -16.5 2.4 83 -18.7 -1.7
08:00 1029 30.39 859 25.37 -16.4 2.5 82 -18.7 -1.7
08:05 1029 30.39 859 25.37 -16.3 2.6 82 -18.7 -1.6
08:10 1030 30.42 859 25.37 -16.3 2.6 82 -18.7 -1.6
08:15 1030 30.42 859 25.37 -16.3 2.7 82 -18.7 -1.7
08:20 1030 30.42 859 25.37 -16.3 2.6 82 -18.7 -1.7
08:25 1030 30.42 859 25.37 -16.3 2.7 81 -18.8 -1.9
08:30 1030 30.42 859 25.37 -16.3 2.7 81 -18.8 -1.8
08:35 1030 30.42 859 25.37 -16.4 2.6 81 -18.9 -2
08:40 1030 30.42 859 25.37 -16.4 2.5 81 -19 -2.1
08:45 1030 30.42 859 25.37 -16.4 2.5 81 -19 -2.2
08:50 1030 30.42 859 25.37 -16.4 2.5 81 -18.9 -2
08:55 1030 30.42 859 25.37 -16.4 2.4 81 -18.9 -2.1
09:00 1030 30.42 859 25.37 -16.3 2.7 81 -18.9 -2
09:05 1030 30.42 859 25.37 -16.2 2.8 82 -18.6 -1.6
09:10 1030 30.42 860 25.4 -16.1 3.1 81 -18.7 -1.6
09:15 1030 30.42 860 25.4 -15.9 3.4 79 -18.7 -1.7
09:20 1030 30.42 860 25.4 -16.1 3 80 -18.8 -1.8
09:25 1030 30.42 860 25.4 -16.3 2.6 80 -19 -2.1
09:30 1030 30.42 860 25.4 -16.2 2.8 80 -18.9 -2.1
09:35 1031 30.45 860 25.4 -16.1 3.1 79 -18.8 -1.9
09:40 1031 30.45 860 25.4 -16 3.2 79 -18.9 -2
09:45 1031 30.45 860 25.4 -15.8 3.5 77 -19 -2.3
09:50 1031 30.45 860 25.4 -15.8 3.7 78 -18.7 -1.6
09:55 1031 30.45 860 25.4 -15.5 4.1 78 -18.6 -1.5
10:00 1031 30.45 860 25.4 -15.4 4.3 75 -18.9 -2
10:05 1031 30.45 860 25.4 -15.7 3.7 77 -18.9 -2
10:10 1031 30.45 860 25.4 -15.3 4.5 75 -18.8 -1.8
10:15 1031 30.45 860 25.4 -15.3 4.5 76 -18.6 -1.5
10:20 1031 30.45 860 25.4 -15.2 4.6 75 -18.7 -1.6
10:25 1031 30.45 860 25.4 -15.5 4.1 75 -19 -2.1
10:30 1031 30.45 860 25.4 -15.6 3.9 77 -18.8 -1.8
10:35 1031 30.45 860 25.4 -15.5 4.1 75 -19 -2.1
10:40 1031 30.45 860 25.4 -15.4 4.2 73 -19.2 -2.6
10:45 1031 30.45 860 25.4 -15.7 3.7 74 -19.3 -2.8
10:50 1031 30.45 860 25.4 -15.5 4.2 75 -19 -2.2
10:55 1031 30.45 860 25.4 -14.6 5.7 70 -18.9 -2
11:00 1031 30.45 860 25.4 -14.4 6.2 69 -18.9 -2
11:05 1031 30.45 860 25.4 -14.2 6.5 67 -19 -2.2
11:10 1031 30.45 860 25.4 -14.1 6.6 68 -18.8 -1.9
11:15 1031 30.45 860 25.4 -14.2 6.5 66 -19.2 -2.6
11:20 1031 30.45 860 25.4 -14.1 6.6 66 -19.1 -2.4
11:25 1031 30.45 860 25.4 -14.2 6.4 67 -19 -2.3
11:30 1031 30.45 860 25.4 -13.9 7.1 65 -19.1 -2.5
11:35 1031 30.45 860 25.4 -13.2 8.2 64 -18.7 -1.7
11:40 1031 30.45 860 25.4 -12.9 8.7 63 -18.5 -1.4
11:45 1031 30.45 860 25.4 -12.8 9.1 60 -19 -2.2
11:50 1031 30.45 860 25.4 -13.2 8.2 62 -19 -2.2
11:55 1031 30.45 860 25.4 -13.1 8.3 63 -18.8 -1.8
12:00 1031 30.45 860 25.4 -12.8 9 59 -19.2 -2.5
12:05 1031 30.45 860 25.4 -12.9 8.8 63 -18.6 -1.4
12:10 1031 30.45 860 25.4 -12.9 8.8 60 -19.1 -2.3
12:15 1031 30.45 860 25.4 -12.9 8.8 59 -19.3 -2.7
12:20 1031 30.45 860 25.4 -13 8.6 60 -19.1 -2.5
12:25 1031 30.45 860 25.4 -12.4 9.7 58 -19 -2.2
12:30 1031 30.45 860 25.4 -12.4 9.7 56 -19.5 -3.1
12:35 1031 30.45 860 25.4 -12.3 9.9 57 -19.2 -2.5
12:40 1031 30.45 860 25.4 -12.2 10 56 -19.3 -2.7
12:45 1031 30.45 860 25.4 -12.7 9.1 58 -19.4 -3
12:50 1030 30.42 860 25.4 -13 8.6 58 -19.6 -3.2
12:55 1030 30.42 860 25.4 -12.8 9 56 -19.8 -3.6
13:00 1030 30.42 860 25.4 -13 8.6 57 -19.7 -3.5
13:05 1030 30.42 860 25.4 -13.5 7.7 59 -19.8 -3.7
13:10 1030 30.42 860 25.4 -12.9 8.9 57 -19.8 -3.6
13:15 1030 30.42 860 25.4 -12.6 9.3 57 -19.5 -3.1
13:20 1030 30.42 860 25.4 -12.8 8.9 57 -19.6 -3.3
13:25 1030 30.42 860 25.4 -12.7 9.2 55 -19.8 -3.7
13:30 1030 30.42 859 25.37 -12.6 9.4 56 -19.5 -3.2
13:35 1030 30.42 859 25.37 -12.4 9.7 57 -19.3 -2.8
13:40 1030 30.42 859 25.37 -13.1 8.4 59 -19.6 -3.2
13:45 1030 30.42 859 25.37 -14.1 6.6 62 -20 -4
13:50 1030 30.42 859 25.37 -13.8 7.2 59 -20.2 -4.3
13:55 1030 30.42 859 25.37 -13.9 7.1 59 -20.2 -4.4
14:00 1030 30.42 859 25.37 -14 6.8 59 -20.3 -4.6
14:05 1030 30.42 859 25.37 -13.9 6.9 59 -20.4 -4.7
14:10 1030 30.42 859 25.37 -14.1 6.7 57 -20.9 -5.6
14:15 1030 30.42 859 25.37 -14 6.8 58 -20.6 -5
14:20 1030 30.42 859 25.37 -14 6.9 56 -20.9 -5.6
14:25 1030 30.42 859 25.37 -13.7 7.4 59 -20.1 -4.3
14:30 1030 30.42 859 25.37 -13.8 7.2 61 -19.8 -3.7
14:35 1030 30.42 860 25.4 -13.8 7.1 58 -20.5 -4.8
14:40 1030 30.42 860 25.4 -13.5 7.8 56 -20.4 -4.7
14:45 1030 30.42 860 25.4 -13.5 7.7 58 -20.1 -4.1
14:50 1030 30.42 860 25.4 -13.3 8.1 57 -20.1 -4.2
14:55 1031 30.45 860 25.4 -13.7 7.4 59 -20.1 -4.2
15:00 1031 30.45 860 25.4 -13.8 7.1 59 -20.3 -4.6
15:05 1031 30.45 860 25.4 -13.7 7.4 59 -20.1 -4.1
15:10 1031 30.45 860 25.4 -13.6 7.5 58 -20.2 -4.4
15:15 1031 30.45 860 25.4 -13.7 7.4 59 -20.1 -4.2
15:20 1031 30.45 860 25.4 -13.9 7.1 59 -20.3 -4.6
15:25 1031 30.45 860 25.4 -14.3 6.2 61 -20.3 -4.6
15:30 1031 30.45 860 25.4 -14.6 5.6 61 -20.6 -5.1
15:35 1031 30.45 860 25.4 -14.6 5.8 60 -20.7 -5.3
15:40 1031 30.45 860 25.4 -14.4 6.2 60 -20.5 -4.9
15:45 1031 30.45 860 25.4 -14 6.8 60 -20.3 -4.5
15:50 1031 30.45 860 25.4 -13.9 7 59 -20.3 -4.6
15:55 1031 30.45 860 25.4 -13.9 7.1 59 -20.2 -4.4
16:00 1030 30.42 860 25.4 -14 6.9 59 -20.4 -4.7
16:05 1030 30.42 860 25.4 -14.3 6.4 60 -20.4 -4.8
16:10 1030 30.42 860 25.4 -14.3 6.2 60 -20.5 -4.9
16:15 1030 30.42 860 25.4 -14.9 5.1 62 -20.7 -5.3
16:20 1030 30.42 860 25.4 -15.6 4 63 -21.1 -5.9
16:25 1030 30.42 860 25.4 -15.5 4 64 -21 -5.8
16:30 1030 30.42 860 25.4 -15.4 4.3 62 -21.1 -6
16:35 1030 30.42 860 25.4 -15.2 4.6 62 -21 -5.8
16:40 1030 30.42 860 25.4 -15 5.1 62 -20.7 -5.3
16:45 1030 30.42 860 25.4 -15 4.9 64 -20.5 -4.9
16:50 1030 30.42 860 25.4 -15.5 4.2 65 -20.6 -5.1
16:55 1030 30.42 860 25.4 -15.8 3.5 67 -20.6 -5.2
17:00 1030 30.42 860 25.4 -16.2 2.8 68 -20.8 -5.4
17:05 1030 30.42 860 25.4 -16.7 1.9 71 -20.8 -5.5
17:10 1031 30.45 860 25.4 -17.4 0.7 75 -20.8 -5.5
17:15 1031 30.45 860 25.4 -17.7 0.1 77 -20.8 -5.5
17:20 1031 30.45 860 25.4 -17.7 0.1 76 -20.9 -5.6
17:25 1031 30.45 860 25.4 -18.1 -0.6 78 -21.1 -5.9
17:30 1031 30.45 860 25.4 -18.4 -1.2 79 -21.2 -6.2
17:35 1031 30.45 860 25.4 -18.8 -1.8 79 -21.5 -6.8
17:40 1031 30.45 860 25.4 -19.2 -2.6 82 -21.6 -6.9
17:45 1030 30.42 860 25.4 -19.2 -2.5 79 -22 -7.5
17:50 1030 30.42 860 25.4 -19.6 -3.4 80 -22.2 -8
17:55 1031 30.45 860 25.4 -20.1 -4.1 81 -22.5 -8.5
18:00 1031 30.45 860 25.4 -20.1 -4.3 80 -22.7 -8.9
18:05 1031 30.45 860 25.4 -19.9 -3.8 82 -22.2 -8
18:10 1031 30.45 860 25.4 -19.3 -2.8 79 -22.1 -7.7
18:15 1031 30.45 860 25.4 -19.4 -2.8 79 -22.1 -7.8
18:20 1031 30.45 860 25.4 -19.4 -3 79 -22.2 -8
18:25 1030 30.42 860 25.4 -19.6 -3.2 78 -22.5 -8.5
18:30 1030 30.42 860 25.4 -19.7 -3.4 79 -22.5 -8.4
18:35 1030 30.42 859 25.37 -19.6 -3.2 77 -22.6 -8.7
18:40 1030 30.42 860 25.4 -20.2 -4.4 81 -22.7 -8.8
18:45 1030 30.42 860 25.4 -20.2 -4.4 79 -22.9 -9.3
18:50 1030 30.42 860 25.4 -20.6 -5.2 79 -23.4 -10.1
18:55 1030 30.42 860 25.4 -20.8 -5.5 79 -23.5 -10.4
19:00 1030 30.42 860 25.4 -20.5 -4.9 77 -23.5 -10.3
19:05 1030 30.42 860 25.4 -20.4 -4.7 78 -23.4 -10
19:10 1030 30.42 860 25.4 -20.2 -4.4 76 -23.4 -10.1
19:15 1030 30.42 860 25.4 -20.6 -5 76 -23.7 -10.7
19:20 1030 30.42 860 25.4 -21 -5.8 77 -24 -11.2
19:25 1030 30.42 860 25.4 -21.4 -6.4 78 -24.2 -11.5
19:30 1030 30.42 860 25.4 -21.4 -6.4 79 -24.2 -11.5
19:35 1030 30.42 860 25.4 -21.6 -6.9 79 -24.3 -11.8
19:40 1030 30.42 860 25.4 -21.6 -6.9 79 -24.3 -11.7
19:45 1030 30.42 860 25.4 -21.5 -6.6 80 -24 -11.3
19:50 1030 30.42 860 25.4 -21.3 -6.3 80 -23.8 -10.9
19:55 1030 30.42 860 25.4 -21 -5.8 80 -23.7 -10.6
20:00 1030 30.42 860 25.4 -20.8 -5.4 79 -23.6 -10.5
20:05 1030 30.42 860 25.4 -20.6 -5.1 78 -23.5 -10.2
20:10 1030 30.42 860 25.4 -20.5 -4.8 78 -23.4 -10.1
20:15 1030 30.42 860 25.4 -20.2 -4.3 77 -23.3 -10
20:20 1030 30.42 860 25.4 -20.3 -4.5 77 -23.4 -10.1
20:25 1030 30.42 860 25.4 -20.3 -4.5 76 -23.5 -10.3
20:30 1030 30.42 860 25.4 -20.6 -5.1 77 -23.7 -10.6
20:35 1030 30.42 860 25.4 -20.9 -5.7 78 -23.8 -10.9
20:40 1030 30.42 860 25.4 -21.1 -6 78 -23.9 -11.1
20:45 1030 30.42 860 25.4 -21.2 -6.1 79 -23.9 -10.9
20:50 1030 30.42 860 25.4 -20.9 -5.6 80 -23.5 -10.3
20:55 1030 30.42 860 25.4 -20.5 -4.8 76 -23.6 -10.5
21:00 1030 30.42 860 25.4 -21 -5.7 79 -23.8 -10.8
21:05 1030 30.42 860 25.4 -20.9 -5.7 79 -23.6 -10.6
21:10 1031 30.45 860 25.4 -21.1 -5.9 79 -23.9 -11
21:15 1030 30.42 860 25.4 -21.1 -5.9 77 -24 -11.3
21:20 1031 30.45 860 25.4 -21.2 -6.1 78 -24.1 -11.3
21:25 1031 30.45 860 25.4 -21.1 -6 77 -24.1 -11.4
21:30 1031 30.45 860 25.4 -21.3 -6.4 77 -24.3 -11.8
21:35 1031 30.45 860 25.4 -21.7 -7.1 78 -24.6 -12.2
21:40 1031 30.45 860 25.4 -21.9 -7.5 78 -24.7 -12.5
21:45 1030 30.42 860 25.4 -22.1 -7.7 80 -24.7 -12.4
21:50 1030 30.42 860 25.4 -22.1 -7.8 81 -24.6 -12.3
21:55 1030 30.42 860 25.4 -22.2 -8 81 -24.7 -12.5
22:00 1030 30.42 860 25.4 -22.2 -8 80 -24.8 -12.7
22:05 1030 30.42 860 25.4 -22 -7.6 79 -24.8 -12.7
22:10 1030 30.42 860 25.4 -22.1 -7.8 79 -24.9 -12.7
22:15 1030 30.42 860 25.4 -22.3 -8.1 79 -25 -13
22:20 1030 30.42 860 25.4 -22.4 -8.4 80 -25.1 -13.1
22:25 1030 30.42 860 25.4 -22.4 -8.3 80 -25 -13
22:30 1030 30.42 860 25.4 -22.3 -8.1 79 -24.9 -12.9
22:35 1030 30.42 859 25.37 -22.3 -8.1 79 -25 -13
22:40 1030 30.42 859 25.37 -22.5 -8.5 79 -25.2 -13.3
22:45 1030 30.42 859 25.37 -22.6 -8.6 80 -25.2 -13.3
22:50 1030 30.42 859 25.37 -22.5 -8.4 79 -25.2 -13.4
22:55 1030 30.42 859 25.37 -22.2 -8 79 -24.9 -12.8
23:00 1030 30.42 859 25.37 -22.1 -7.7 79 -24.9 -12.8
23:05 1030 30.42 859 25.37 -22 -7.7 79 -24.7 -12.5
23:10 1030 30.42 859 25.37 -21.9 -7.4 79 -24.7 -12.4
23:15 1030 30.42 859 25.37 -21.7 -7.1 79 -24.5 -12.2
23:20 1030 30.42 859 25.37 -21.7 -7 78 -24.5 -12.2
23:25 1030 30.42 859 25.37 -21.8 -7.2 78 -24.6 -12.3
23:30 1030 30.42 859 25.37 -21.6 -6.9 78 -24.5 -12.1
23:35 1030 30.42 859 25.37 -21.5 -6.7 78 -24.4 -12
23:40 1030 30.42 859 25.37 -21.5 -6.6 77 -24.4 -12
23:45 1030 30.42 859 25.37 -21.7 -7.1 78 -24.6 -12.2
23:50 1030 30.42 859 25.37 -21.9 -7.3 78 -24.8 -12.6
23:55 1030 30.42 859 25.37 -22.1 -7.8 77 -25.1 -13.1
24:00 1029 30.39 859 25.37 -22.4 -8.4 79 -25.2 -13.4